sensor_id;sensor_type;location;lat;lon;timestamp;pressure;altitude;pressure_sealevel;temperature;humidity
67931;BME280;54726;52.000;5.954;2022-08-18T00:00:47;100881.63;;;18.31;96.46
67931;BME280;54726;52.000;5.954;2022-08-18T00:01:49;100876.38;;;18.29;96.38
67931;BME280;54726;52.000;5.954;2022-08-18T00:02:50;100880.91;;;18.29;96.31
67931;BME280;54726;52.000;5.954;2022-08-18T00:03:52;100874.88;;;18.25;96.33
67931;BME280;54726;52.000;5.954;2022-08-18T00:04:53;100874.03;;;18.25;96.66
67931;BME280;54726;52.000;5.954;2022-08-18T00:05:53;100873.19;;;18.24;96.57
67931;BME280;54726;52.000;5.954;2022-08-18T00:06:54;100870.34;;;18.26;96.58
67931;BME280;54726;52.000;5.954;2022-08-18T00:07:54;100878.41;;;18.26;96.68
67931;BME280;54726;52.000;5.954;2022-08-18T00:08:56;100870.59;;;18.23;96.34
67931;BME280;54726;52.000;5.954;2022-08-18T00:09:57;100876.72;;;18.25;96.55
67931;BME280;54726;52.000;5.954;2022-08-18T00:10:59;100884.75;;;18.25;96.34
67931;BME280;54726;52.000;5.954;2022-08-18T00:12:00;100875.09;;;18.22;96.27
67931;BME280;54726;52.000;5.954;2022-08-18T00:13:01;100874.03;;;18.25;96.67
67931;BME280;54726;52.000;5.954;2022-08-18T00:14:02;100876.72;;;18.25;96.41
67931;BME280;54726;52.000;5.954;2022-08-18T00:15:03;100882.94;;;18.25;96.45
67931;BME280;54726;52.000;5.954;2022-08-18T00:16:04;100876.63;;;18.26;96.46
67931;BME280;54726;52.000;5.954;2022-08-18T00:17:05;100890.03;;;18.26;96.52
67931;BME280;54726;52.000;5.954;2022-08-18T00:18:05;100887.22;;;18.28;96.28
67931;BME280;54726;52.000;5.954;2022-08-18T00:19:07;100878.41;;;18.26;96.40
67931;BME280;54726;52.000;5.954;2022-08-18T00:20:10;100874.16;;;18.23;96.57
67931;BME280;54726;52.000;5.954;2022-08-18T00:21:11;100886.47;;;18.26;96.50
67931;BME280;54726;52.000;5.954;2022-08-18T00:22:14;100879.63;;;18.22;96.35
67931;BME280;54726;52.000;5.954;2022-08-18T00:23:15;100892.19;;;18.21;96.66
67931;BME280;54726;52.000;5.954;2022-08-18T00:24:15;100887.91;;;18.19;96.35
67931;BME280;54726;52.000;5.954;2022-08-18T00:25:18;100886.69;;;18.23;96.41
67931;BME280;54726;52.000;5.954;2022-08-18T00:26:18;100875.09;;;18.22;96.45
67931;BME280;54726;52.000;5.954;2022-08-18T00:27:20;100875.09;;;18.22;96.61
67931;BME280;54726;52.000;5.954;2022-08-18T00:28:21;100883.28;;;18.21;96.40
67931;BME280;54726;52.000;5.954;2022-08-18T00:29:22;100880.81;;;18.18;96.19
67931;BME280;54726;52.000;5.954;2022-08-18T00:30:22;100878.13;;;18.18;96.32
67931;BME280;54726;52.000;5.954;2022-08-18T00:31:23;100890.44;;;18.20;96.66
67931;BME280;54726;52.000;5.954;2022-08-18T00:32:26;100893.13;;;18.20;96.49
67931;BME280;54726;52.000;5.954;2022-08-18T00:33:27;100887.03;;;18.18;96.15
67931;BME280;54726;52.000;5.954;2022-08-18T00:34:28;100885.22;;;18.19;96.53
67931;BME280;54726;52.000;5.954;2022-08-18T00:35:31;100889.59;;;18.20;96.21
67931;BME280;54726;52.000;5.954;2022-08-18T00:36:32;100885.09;;;18.20;96.32
67931;BME280;54726;52.000;5.954;2022-08-18T00:37:33;100892.19;;;18.21;96.15
67931;BME280;54726;52.000;5.954;2022-08-18T00:38:33;100886.91;;;18.20;96.25
67931;BME280;54726;52.000;5.954;2022-08-18T00:39:33;100886.91;;;18.20;96.44
67931;BME280;54726;52.000;5.954;2022-08-18T00:40:38;100886.19;;;18.18;96.51
67931;BME280;54726;52.000;5.954;2022-08-18T00:41:38;100885.44;;;18.16;96.56
67931;BME280;54726;52.000;5.954;2022-08-18T00:42:42;100889.94;;;18.15;96.49
67931;BME280;54726;52.000;5.954;2022-08-18T00:43:44;100882.97;;;18.13;96.55
67931;BME280;54726;52.000;5.954;2022-08-18T00:44:45;100884.81;;;18.12;96.62
67931;BME280;54726;52.000;5.954;2022-08-18T00:45:46;100895.53;;;18.12;96.87
67931;BME280;54726;52.000;5.954;2022-08-18T00:46:46;100883.91;;;18.11;96.71
67931;BME280;54726;52.000;5.954;2022-08-18T00:47:46;100886.59;;;18.11;96.87
67931;BME280;54726;52.000;5.954;2022-08-18T00:48:47;100888.34;;;18.13;96.34
67931;BME280;54726;52.000;5.954;2022-08-18T00:49:51;100886.28;;;18.16;96.75
67931;BME280;54726;52.000;5.954;2022-08-18T00:50:54;100891.03;;;18.13;96.65
67931;BME280;54726;52.000;5.954;2022-08-18T00:51:56;100889.28;;;18.11;96.51
67931;BME280;54726;52.000;5.954;2022-08-18T00:52:59;100892.19;;;18.08;96.54
67931;BME280;54726;52.000;5.954;2022-08-18T00:54:04;100889.50;;;18.08;96.87
67931;BME280;54726;52.000;5.954;2022-08-18T00:55:06;100885.88;;;18.09;96.58
67931;BME280;54726;52.000;5.954;2022-08-18T00:56:11;100892.09;;;18.10;96.55
67931;BME280;54726;52.000;5.954;2022-08-18T00:57:15;100884.91;;;18.10;96.71
67931;BME280;54726;52.000;5.954;2022-08-18T00:58:19;100883.06;;;18.11;96.50
67931;BME280;54726;52.000;5.954;2022-08-18T00:59:23;100888.56;;;18.09;96.52
67931;BME280;54726;52.000;5.954;2022-08-18T01:00:25;100884.38;;;18.05;96.77
67931;BME280;54726;52.000;5.954;2022-08-18T01:01:28;100884.59;;;18.02;97.02
67931;BME280;54726;52.000;5.954;2022-08-18T01:02:33;100878.47;;;18.00;96.79
67931;BME280;54726;52.000;5.954;2022-08-18T01:03:36;100878.47;;;18.00;96.63
67931;BME280;54726;52.000;5.954;2022-08-18T01:04:40;100889.66;;;18.07;96.52
67931;BME280;54726;52.000;5.954;2022-08-18T01:05:47;100882.44;;;18.07;96.79
67931;BME280;54726;52.000;5.954;2022-08-18T01:06:53;100885.88;;;18.09;96.55
67931;BME280;54726;52.000;5.954;2022-08-18T01:07:54;100889.28;;;18.11;96.56
67931;BME280;54726;52.000;5.954;2022-08-18T01:08:54;100886.75;;;18.10;96.55
67931;BME280;54726;52.000;5.954;2022-08-18T01:09:56;100884.91;;;18.10;96.43
67931;BME280;54726;52.000;5.954;2022-08-18T01:10:57;100894.56;;;18.13;96.39
67931;BME280;54726;52.000;5.954;2022-08-18T01:11:59;100896.41;;;18.13;96.56
67931;BME280;54726;52.000;5.954;2022-08-18T01:12:59;100898.31;;;18.10;96.40
67931;BME280;54726;52.000;5.954;2022-08-18T01:13:59;100893.81;;;18.11;96.50
67931;BME280;54726;52.000;5.954;2022-08-18T01:15:00;100894.78;;;18.10;96.57
67931;BME280;54726;52.000;5.954;2022-08-18T01:16:01;100899.41;;;18.08;96.58
67931;BME280;54726;52.000;5.954;2022-08-18T01:17:01;100898.78;;;18.04;96.52
67931;BME280;54726;52.000;5.954;2022-08-18T01:18:04;100892.56;;;18.04;96.96
67931;BME280;54726;52.000;5.954;2022-08-18T01:19:06;100893.41;;;18.04;96.79
67931;BME280;54726;52.000;5.954;2022-08-18T01:20:07;100888.03;;;18.04;97.01
67931;BME280;54726;52.000;5.954;2022-08-18T01:21:15;100893.28;;;18.06;96.88
67931;BME280;54726;52.000;5.954;2022-08-18T01:22:22;100886.09;;;18.06;96.66
67931;BME280;54726;52.000;5.954;2022-08-18T01:23:27;100890.50;;;18.07;96.50
67931;BME280;54726;52.000;5.954;2022-08-18T01:24:32;100889.72;;;18.05;96.47
67931;BME280;54726;52.000;5.954;2022-08-18T01:25:33;100898.53;;;18.07;96.46
67931;BME280;54726;52.000;5.954;2022-08-18T01:26:35;100899.53;;;18.06;96.76
67931;BME280;54726;52.000;5.954;2022-08-18T01:27:36;100901.44;;;18.04;96.76
67931;BME280;54726;52.000;5.954;2022-08-18T01:28:39;100899.72;;;18.03;96.69
67931;BME280;54726;52.000;5.954;2022-08-18T01:29:40;100899.72;;;18.03;96.67
67931;BME280;54726;52.000;5.954;2022-08-18T01:30:47;100903.38;;;18.02;96.82
67931;BME280;54726;52.000;5.954;2022-08-18T01:31:50;100902.63;;;18.00;96.87
67931;BME280;54726;52.000;5.954;2022-08-18T01:32:51;100911.66;;;17.99;96.73
67931;BME280;54726;52.000;5.954;2022-08-18T01:33:52;100907.34;;;17.97;96.75
67931;BME280;54726;52.000;5.954;2022-08-18T01:34:52;100904.75;;;17.95;96.83
67931;BME280;54726;52.000;5.954;2022-08-18T01:35:53;100896.84;;;17.94;97.07
67931;BME280;54726;52.000;5.954;2022-08-18T01:36:54;100897.69;;;17.94;96.88
67931;BME280;54726;52.000;5.954;2022-08-18T01:37:55;100896.84;;;17.94;96.92
67931;BME280;54726;52.000;5.954;2022-08-18T01:38:57;100898.75;;;17.92;96.71
67931;BME280;54726;52.000;5.954;2022-08-18T01:39:57;100896.00;;;17.93;96.82
67931;BME280;54726;52.000;5.954;2022-08-18T01:40:58;100902.09;;;17.95;96.46
67931;BME280;54726;52.000;5.954;2022-08-18T01:41:58;100892.31;;;17.94;96.92
67931;BME280;54726;52.000;5.954;2022-08-18T01:42:59;100895.00;;;17.94;96.74
67931;BME280;54726;52.000;5.954;2022-08-18T01:44:01;100902.22;;;17.94;96.67
67931;BME280;54726;52.000;5.954;2022-08-18T01:45:04;100906.06;;;17.89;96.47
67931;BME280;54726;52.000;5.954;2022-08-18T01:46:05;100896.22;;;17.90;96.66
67931;BME280;54726;52.000;5.954;2022-08-18T01:47:06;100896.22;;;17.90;96.75
67931;BME280;54726;52.000;5.954;2022-08-18T01:48:06;100898.97;;;17.88;96.61
67931;BME280;54726;52.000;5.954;2022-08-18T01:49:08;100905.31;;;17.87;96.60
67931;BME280;54726;52.000;5.954;2022-08-18T01:50:09;100896.63;;;17.84;96.67
67931;BME280;54726;52.000;5.954;2022-08-18T01:51:10;100905.41;;;17.86;96.63
67931;BME280;54726;52.000;5.954;2022-08-18T01:52:14;100906.28;;;17.86;96.62
67931;BME280;54726;52.000;5.954;2022-08-18T01:53:15;100913.59;;;17.84;96.70
67931;BME280;54726;52.000;5.954;2022-08-18T01:54:17;100915.63;;;17.81;96.70
67931;BME280;54726;52.000;5.954;2022-08-18T01:55:18;100911.22;;;17.80;96.58
67931;BME280;54726;52.000;5.954;2022-08-18T01:56:18;100916.59;;;17.80;96.79
67931;BME280;54726;52.000;5.954;2022-08-18T01:57:19;100923.00;;;17.77;96.55
67931;BME280;54726;52.000;5.954;2022-08-18T01:58:20;100923.78;;;17.79;96.67
67931;BME280;54726;52.000;5.954;2022-08-18T01:59:21;100916.59;;;17.80;96.65
67931;BME280;54726;52.000;5.954;2022-08-18T02:00:21;100922.03;;;17.78;96.39
67931;BME280;54726;52.000;5.954;2022-08-18T02:01:23;100912.25;;;17.77;96.37
67931;BME280;54726;52.000;5.954;2022-08-18T02:02:25;100915.16;;;17.74;96.52
67931;BME280;54726;52.000;5.954;2022-08-18T02:03:30;100913.34;;;17.75;96.65
67931;BME280;54726;52.000;5.954;2022-08-18T02:04:32;100913.56;;;17.72;96.47
67931;BME280;54726;52.000;5.954;2022-08-18T02:05:37;100921.50;;;17.73;96.27
67931;BME280;54726;52.000;5.954;2022-08-18T02:06:39;100924.28;;;17.72;96.59
67931;BME280;54726;52.000;5.954;2022-08-18T02:07:39;100916.22;;;17.72;96.48
67931;BME280;54726;52.000;5.954;2022-08-18T02:08:40;100921.59;;;17.72;96.23
67931;BME280;54726;52.000;5.954;2022-08-18T02:09:42;100917.09;;;17.72;96.26
67931;BME280;54726;52.000;5.954;2022-08-18T02:10:43;100922.34;;;17.74;96.36
67931;BME280;54726;52.000;5.954;2022-08-18T02:11:43;100913.69;;;17.70;96.28
67931;BME280;54726;52.000;5.954;2022-08-18T02:12:44;100918.69;;;17.75;96.26
67931;BME280;54726;52.000;5.954;2022-08-18T02:13:44;100921.50;;;17.73;96.06
67931;BME280;54726;52.000;5.954;2022-08-18T02:14:45;100912.56;;;17.73;96.22
67931;BME280;54726;52.000;5.954;2022-08-18T02:15:45;100924.41;;;17.70;96.28
67931;BME280;54726;52.000;5.954;2022-08-18T02:16:46;100911.94;;;17.69;95.97
67931;BME280;54726;52.000;5.954;2022-08-18T02:17:47;100911.00;;;17.70;96.36
67931;BME280;54726;52.000;5.954;2022-08-18T02:18:47;100918.16;;;17.70;96.17
67931;BME280;54726;52.000;5.954;2022-08-18T02:19:48;100918.06;;;17.71;95.90
67931;BME280;54726;52.000;5.954;2022-08-18T02:20:48;100912.06;;;17.67;96.01
67931;BME280;54726;52.000;5.954;2022-08-18T02:21:50;100919.22;;;17.67;96.45
67931;BME280;54726;52.000;5.954;2022-08-18T02:22:50;100916.66;;;17.65;96.31
67931;BME280;54726;52.000;5.954;2022-08-18T02:23:51;100922.78;;;17.67;96.15
67931;BME280;54726;52.000;5.954;2022-08-18T02:24:55;100925.34;;;17.69;96.22
67931;BME280;54726;52.000;5.954;2022-08-18T02:25:56;100914.84;;;17.66;96.04
67931;BME280;54726;52.000;5.954;2022-08-18T02:26:57;100915.81;;;17.65;95.97
67931;BME280;54726;52.000;5.954;2022-08-18T02:27:58;100920.41;;;17.63;96.25
67931;BME280;54726;52.000;5.954;2022-08-18T02:28:58;100923.19;;;17.61;96.11
67931;BME280;54726;52.000;5.954;2022-08-18T02:29:59;100916.25;;;17.59;96.27
67931;BME280;54726;52.000;5.954;2022-08-18T02:31:03;100917.19;;;17.58;96.14
67931;BME280;54726;52.000;5.954;2022-08-18T02:32:04;100919.66;;;17.61;96.16
67931;BME280;54726;52.000;5.954;2022-08-18T02:33:06;100914.19;;;17.62;96.15
67931;BME280;54726;52.000;5.954;2022-08-18T02:34:07;100909.78;;;17.61;95.97
67931;BME280;54726;52.000;5.954;2022-08-18T02:35:09;100911.72;;;17.59;96.14
67931;BME280;54726;52.000;5.954;2022-08-18T02:36:10;100903.69;;;17.59;96.14
67931;BME280;54726;52.000;5.954;2022-08-18T02:37:11;100907.31;;;17.58;95.96
67931;BME280;54726;52.000;5.954;2022-08-18T02:38:11;100902.84;;;17.59;95.99
67931;BME280;54726;52.000;5.954;2022-08-18T02:39:12;100909.91;;;17.60;95.91
67931;BME280;54726;52.000;5.954;2022-08-18T02:40:14;100906.38;;;17.59;95.91
67931;BME280;54726;52.000;5.954;2022-08-18T02:41:15;100913.44;;;17.60;96.05
67931;BME280;54726;52.000;5.954;2022-08-18T02:42:16;100909.91;;;17.60;96.01
67931;BME280;54726;52.000;5.954;2022-08-18T02:43:16;100904.31;;;17.63;95.70
67931;BME280;54726;52.000;5.954;2022-08-18T02:44:17;100902.41;;;17.65;95.78
67931;BME280;54726;52.000;5.954;2022-08-18T02:45:17;100910.53;;;17.63;95.92
67931;BME280;54726;52.000;5.954;2022-08-18T02:46:18;100914.28;;;17.61;95.90
67931;BME280;54726;52.000;5.954;2022-08-18T02:47:19;100913.66;;;17.57;95.97
67931;BME280;54726;52.000;5.954;2022-08-18T02:48:20;100908.72;;;17.51;96.25
67931;BME280;54726;52.000;5.954;2022-08-18T02:49:20;100918.47;;;17.52;96.43
67931;BME280;54726;52.000;5.954;2022-08-18T02:50:21;100917.53;;;17.53;96.27
67931;BME280;54726;52.000;5.954;2022-08-18T02:51:22;100927.28;;;17.54;96.36
67931;BME280;54726;52.000;5.954;2022-08-18T02:52:22;100929.94;;;17.54;96.19
67931;BME280;54726;52.000;5.954;2022-08-18T02:53:23;100928.13;;;17.55;95.99
67931;BME280;54726;52.000;5.954;2022-08-18T02:54:24;100928.13;;;17.55;96.11
67931;BME280;54726;52.000;5.954;2022-08-18T02:55:26;100931.66;;;17.55;96.13
67931;BME280;54726;52.000;5.954;2022-08-18T02:56:29;100921.78;;;17.56;96.16
67931;BME280;54726;52.000;5.954;2022-08-18T02:57:30;100935.00;;;17.59;95.95
67931;BME280;54726;52.000;5.954;2022-08-18T02:58:30;100926.84;;;17.60;96.18
67931;BME280;54726;52.000;5.954;2022-08-18T02:59:31;100921.47;;;17.60;95.89
67931;BME280;54726;52.000;5.954;2022-08-18T03:00:31;100920.63;;;17.60;95.90
67931;BME280;54726;52.000;5.954;2022-08-18T03:01:33;100921.47;;;17.60;96.23
67931;BME280;54726;52.000;5.954;2022-08-18T03:02:34;100925.00;;;17.61;96.12
67931;BME280;54726;52.000;5.954;2022-08-18T03:03:34;100920.50;;;17.61;95.93
67931;BME280;54726;52.000;5.954;2022-08-18T03:04:35;100926.84;;;17.60;95.97
67931;BME280;54726;52.000;5.954;2022-08-18T03:05:35;100927.06;;;17.57;95.83
67931;BME280;54726;52.000;5.954;2022-08-18T03:06:37;100932.44;;;17.57;96.28
67931;BME280;54726;52.000;5.954;2022-08-18T03:07:37;100931.56;;;17.57;96.27
67931;BME280;54726;52.000;5.954;2022-08-18T03:08:38;100923.41;;;17.58;95.94
67931;BME280;54726;52.000;5.954;2022-08-18T03:09:38;100925.13;;;17.59;95.85
67931;BME280;54726;52.000;5.954;2022-08-18T03:10:40;100923.31;;;17.60;95.97
67931;BME280;54726;52.000;5.954;2022-08-18T03:11:42;100923.19;;;17.61;96.22
67931;BME280;54726;52.000;5.954;2022-08-18T03:12:42;100924.94;;;17.62;95.67
67931;BME280;54726;52.000;5.954;2022-08-18T03:13:44;100921.25;;;17.63;95.98
67931;BME280;54726;52.000;5.954;2022-08-18T03:14:45;100923.94;;;17.63;95.71
67931;BME280;54726;52.000;5.954;2022-08-18T03:15:45;100920.41;;;17.63;95.73
67931;BME280;54726;52.000;5.954;2022-08-18T03:16:47;100929.31;;;17.63;95.84
67931;BME280;54726;52.000;5.954;2022-08-18T03:17:47;100923.00;;;17.64;95.91
67931;BME280;54726;52.000;5.954;2022-08-18T03:18:48;100931.78;;;17.66;95.89
67931;BME280;54726;52.000;5.954;2022-08-18T03:19:48;100926.41;;;17.66;96.03
67931;BME280;54726;52.000;5.954;2022-08-18T03:20:49;100938.00;;;17.67;95.65
67931;BME280;54726;52.000;5.954;2022-08-18T03:21:50;100931.06;;;17.64;96.05
67931;BME280;54726;52.000;5.954;2022-08-18T03:22:50;100935.53;;;17.64;95.88
67931;BME280;54726;52.000;5.954;2022-08-18T03:23:53;100934.91;;;17.60;96.08
67931;BME280;54726;52.000;5.954;2022-08-18T03:24:53;100945.75;;;17.59;96.20
67931;BME280;54726;52.000;5.954;2022-08-18T03:25:55;100932.44;;;17.57;96.36
67931;BME280;54726;52.000;5.954;2022-08-18T03:26:56;100928.97;;;17.55;96.20
67931;BME280;54726;52.000;5.954;2022-08-18T03:27:56;100939.28;;;17.61;96.25
67931;BME280;54726;52.000;5.954;2022-08-18T03:28:58;100941.97;;;17.61;96.21
67931;BME280;54726;52.000;5.954;2022-08-18T03:29:59;100942.19;;;17.58;96.35
67931;BME280;54726;52.000;5.954;2022-08-18T03:30:59;100937.56;;;17.60;96.15
67931;BME280;54726;52.000;5.954;2022-08-18T03:32:01;100932.22;;;17.60;96.08
67931;BME280;54726;52.000;5.954;2022-08-18T03:33:01;100943.91;;;17.59;96.25
67931;BME280;54726;52.000;5.954;2022-08-18T03:34:02;100943.78;;;17.61;96.19
67931;BME280;54726;52.000;5.954;2022-08-18T03:35:04;100935.09;;;17.57;96.13
67931;BME280;54726;52.000;5.954;2022-08-18T03:36:06;100929.94;;;17.54;96.32
67931;BME280;54726;52.000;5.954;2022-08-18T03:37:07;100933.41;;;17.56;96.22
67931;BME280;54726;52.000;5.954;2022-08-18T03:38:08;100931.56;;;17.57;96.16
67931;BME280;54726;52.000;5.954;2022-08-18T03:39:10;100936.09;;;17.56;96.14
67931;BME280;54726;52.000;5.954;2022-08-18T03:40:11;100932.50;;;17.56;96.03
67931;BME280;54726;52.000;5.954;2022-08-18T03:41:16;100940.69;;;17.54;96.12
67931;BME280;54726;52.000;5.954;2022-08-18T03:42:18;100931.78;;;17.54;96.26
67931;BME280;54726;52.000;5.954;2022-08-18T03:43:18;100934.34;;;17.55;96.23
67931;BME280;54726;52.000;5.954;2022-08-18T03:44:21;100935.97;;;17.58;96.20
67931;BME280;54726;52.000;5.954;2022-08-18T03:45:21;100934.13;;;17.58;96.01
67931;BME280;54726;52.000;5.954;2022-08-18T03:46:22;100930.50;;;17.59;96.05
67931;BME280;54726;52.000;5.954;2022-08-18T03:47:23;100929.53;;;17.60;96.38
67931;BME280;54726;52.000;5.954;2022-08-18T03:48:23;100941.31;;;17.58;95.92
67931;BME280;54726;52.000;5.954;2022-08-18T03:49:24;100944.84;;;17.58;96.08
67931;BME280;54726;52.000;5.954;2022-08-18T03:50:24;100940.47;;;17.57;96.07
67931;BME280;54726;52.000;5.954;2022-08-18T03:51:27;100942.19;;;17.58;96.16
67931;BME280;54726;52.000;5.954;2022-08-18T03:52:27;100932.44;;;17.57;96.06
67931;BME280;54726;52.000;5.954;2022-08-18T03:53:28;100927.50;;;17.51;95.83
67931;BME280;54726;52.000;5.954;2022-08-18T03:54:29;100937.16;;;17.54;96.28
67931;BME280;54726;52.000;5.954;2022-08-18T03:55:30;100938.00;;;17.54;96.04
67931;BME280;54726;52.000;5.954;2022-08-18T03:56:34;100932.63;;;17.54;96.20
67931;BME280;54726;52.000;5.954;2022-08-18T03:57:34;100933.50;;;17.55;96.06
67931;BME280;54726;52.000;5.954;2022-08-18T03:58:35;100929.94;;;17.54;96.20
67931;BME280;54726;52.000;5.954;2022-08-18T03:59:35;100922.75;;;17.55;96.21
67931;BME280;54726;52.000;5.954;2022-08-18T04:00:37;100929.19;;;17.52;96.23
67931;BME280;54726;52.000;5.954;2022-08-18T04:01:39;100928.25;;;17.53;96.04
67931;BME280;54726;52.000;5.954;2022-08-18T04:02:40;100932.63;;;17.54;96.18
67931;BME280;54726;52.000;5.954;2022-08-18T04:03:41;100936.09;;;17.56;96.24
67931;BME280;54726;52.000;5.954;2022-08-18T04:04:41;100935.97;;;17.58;96.10
67931;BME280;54726;52.000;5.954;2022-08-18T04:05:42;100934.13;;;17.58;95.94
67931;BME280;54726;52.000;5.954;2022-08-18T04:06:44;100927.81;;;17.59;95.72
67931;BME280;54726;52.000;5.954;2022-08-18T04:07:45;100934.13;;;17.58;95.85
67931;BME280;54726;52.000;5.954;2022-08-18T04:08:45;100928.75;;;17.58;96.15
67931;BME280;54726;52.000;5.954;2022-08-18T04:09:45;100935.00;;;17.59;95.82
67931;BME280;54726;52.000;5.954;2022-08-18T04:10:46;100922.34;;;17.61;96.13
67931;BME280;54726;52.000;5.954;2022-08-18T04:11:48;100927.59;;;17.62;95.96
67931;BME280;54726;52.000;5.954;2022-08-18T04:12:48;100922.25;;;17.62;95.87
67931;BME280;54726;52.000;5.954;2022-08-18T04:13:50;100913.66;;;17.57;95.94
67931;BME280;54726;52.000;5.954;2022-08-18T04:14:50;100922.13;;;17.64;96.01
67931;BME280;54726;52.000;5.954;2022-08-18T04:15:51;100927.59;;;17.62;95.66
67931;BME280;54726;52.000;5.954;2022-08-18T04:16:51;100925.13;;;17.59;96.28
67931;BME280;54726;52.000;5.954;2022-08-18T04:17:52;100929.44;;;17.62;96.15
67931;BME280;54726;52.000;5.954;2022-08-18T04:18:52;100928.56;;;17.61;96.07
67931;BME280;54726;52.000;5.954;2022-08-18T04:19:54;100926.84;;;17.60;96.08
67931;BME280;54726;52.000;5.954;2022-08-18T04:20:54;100924.16;;;17.60;95.84
67931;BME280;54726;52.000;5.954;2022-08-18T04:21:56;100923.41;;;17.58;95.92
67931;BME280;54726;52.000;5.954;2022-08-18T04:22:57;100926.09;;;17.58;95.85
67931;BME280;54726;52.000;5.954;2022-08-18T04:23:58;100920.84;;;17.57;96.11
67931;BME280;54726;52.000;5.954;2022-08-18T04:24:59;100923.41;;;17.58;95.91
67931;BME280;54726;52.000;5.954;2022-08-18T04:26:00;100918.03;;;17.58;95.79
67931;BME280;54726;52.000;5.954;2022-08-18T04:27:02;100921.59;;;17.59;95.68
67931;BME280;54726;52.000;5.954;2022-08-18T04:28:03;100919.88;;;17.58;95.84
67931;BME280;54726;52.000;5.954;2022-08-18T04:29:04;100921.91;;;17.54;96.16
67931;BME280;54726;52.000;5.954;2022-08-18T04:30:06;100924.38;;;17.57;95.81
67931;BME280;54726;52.000;5.954;2022-08-18T04:31:09;100932.44;;;17.57;96.13
67931;BME280;54726;52.000;5.954;2022-08-18T04:32:09;100928.97;;;17.55;96.15
67931;BME280;54726;52.000;5.954;2022-08-18T04:33:10;100930.94;;;17.53;95.98
67931;BME280;54726;52.000;5.954;2022-08-18T04:34:11;100935.31;;;17.54;96.00
67931;BME280;54726;52.000;5.954;2022-08-18T04:35:11;100937.03;;;17.55;95.90
67931;BME280;54726;52.000;5.954;2022-08-18T04:36:13;100938.75;;;17.56;95.97
67931;BME280;54726;52.000;5.954;2022-08-18T04:37:14;100932.63;;;17.54;95.78
67931;BME280;54726;52.000;5.954;2022-08-18T04:38:14;100936.09;;;17.56;95.93
67931;BME280;54726;52.000;5.954;2022-08-18T04:39:15;100935.19;;;17.56;96.05
67931;BME280;54726;52.000;5.954;2022-08-18T04:40:15;100934.34;;;17.55;95.97
67931;BME280;54726;52.000;5.954;2022-08-18T04:41:16;100932.50;;;17.56;96.03
67931;BME280;54726;52.000;5.954;2022-08-18T04:42:18;100935.19;;;17.56;95.97
67931;BME280;54726;52.000;5.954;2022-08-18T04:43:18;100935.19;;;17.56;95.90
67931;BME280;54726;52.000;5.954;2022-08-18T04:44:20;100933.78;;;17.50;95.87
67931;BME280;54726;52.000;5.954;2022-08-18T04:45:20;100945.28;;;17.52;95.88
67931;BME280;54726;52.000;5.954;2022-08-18T04:46:21;100942.59;;;17.52;96.09
67931;BME280;54726;52.000;5.954;2022-08-18T04:47:22;100940.91;;;17.51;96.44
67931;BME280;54726;52.000;5.954;2022-08-18T04:48:22;100941.09;;;17.48;96.20
67931;BME280;54726;52.000;5.954;2022-08-18T04:49:24;100949.78;;;17.52;96.27
67931;BME280;54726;52.000;5.954;2022-08-18T04:50:24;100942.81;;;17.49;96.24
67931;BME280;54726;52.000;5.954;2022-08-18T04:51:27;100945.50;;;17.49;96.17
67931;BME280;54726;52.000;5.954;2022-08-18T04:52:27;100949.78;;;17.52;96.29
67931;BME280;54726;52.000;5.954;2022-08-18T04:53:28;100945.28;;;17.52;96.19
67931;BME280;54726;52.000;5.954;2022-08-18T04:54:28;100939.91;;;17.52;96.16
67931;BME280;54726;52.000;5.954;2022-08-18T04:55:28;100942.59;;;17.52;96.14
67931;BME280;54726;52.000;5.954;2022-08-18T04:56:31;100938.22;;;17.51;96.39
67931;BME280;54726;52.000;5.954;2022-08-18T04:57:33;100939.16;;;17.50;96.25
67931;BME280;54726;52.000;5.954;2022-08-18T04:58:34;100937.34;;;17.51;96.36
67931;BME280;54726;52.000;5.954;2022-08-18T04:59:35;100935.63;;;17.50;96.18
67931;BME280;54726;52.000;5.954;2022-08-18T05:00:35;100938.22;;;17.51;96.36
67931;BME280;54726;52.000;5.954;2022-08-18T05:01:37;100932.63;;;17.54;96.32
67931;BME280;54726;52.000;5.954;2022-08-18T05:02:38;100928.13;;;17.55;96.10
67931;BME280;54726;52.000;5.954;2022-08-18T05:03:38;100926.22;;;17.57;96.16
67931;BME280;54726;52.000;5.954;2022-08-18T05:04:40;100934.13;;;17.58;96.14
67931;BME280;54726;52.000;5.954;2022-08-18T05:05:41;100935.88;;;17.59;96.12
67931;BME280;54726;52.000;5.954;2022-08-18T05:06:42;100929.75;;;17.57;96.06
67931;BME280;54726;52.000;5.954;2022-08-18T05:07:44;100931.56;;;17.57;96.23
67931;BME280;54726;52.000;5.954;2022-08-18T05:08:45;100931.44;;;17.58;96.05
67931;BME280;54726;52.000;5.954;2022-08-18T05:09:46;100927.81;;;17.59;96.06
67931;BME280;54726;52.000;5.954;2022-08-18T05:10:47;100923.31;;;17.60;95.79
67931;BME280;54726;52.000;5.954;2022-08-18T05:11:51;100926.97;;;17.59;96.14
67931;BME280;54726;52.000;5.954;2022-08-18T05:12:53;100917.19;;;17.58;96.14
67931;BME280;54726;52.000;5.954;2022-08-18T05:13:55;100917.19;;;17.58;96.27
67931;BME280;54726;52.000;5.954;2022-08-18T05:14:55;100919.78;;;17.59;96.11
67931;BME280;54726;52.000;5.954;2022-08-18T05:15:57;100924.16;;;17.60;96.06
67931;BME280;54726;52.000;5.954;2022-08-18T05:16:59;100921.47;;;17.60;95.99
67931;BME280;54726;52.000;5.954;2022-08-18T05:18:00;100917.81;;;17.61;96.07
67931;BME280;54726;52.000;5.954;2022-08-18T05:19:00;100920.41;;;17.63;96.06
67931;BME280;54726;52.000;5.954;2022-08-18T05:20:00;100919.44;;;17.64;96.02
67931;BME280;54726;52.000;5.954;2022-08-18T05:21:01;100913.13;;;17.65;95.83